Time;durP1;ratioP1;P1;durP2;ratioP2;P2;SDS_P1;SDS_P2;PMS_P1;PMS_P2;Temp;Humidity;BMP_temperature;BMP_pressure;BME280_temperature;BME280_humidity;BME280_pressure;Samples;Min_cycle;Max_cycle;Signal;HPM_P1;HPM_P2
2022/05/11 00:01:37;;;;;;;18.10;6.57;;;;;;;;;;5011367;28;20116;-51
2022/05/11 00:04:08;;;;;;;18.65;6.43;;;;;;;;;;5012549;28;20026;-55
2022/05/11 00:06:35;;;;;;;32.97;7.07;;;;;;;;;;5006666;28;20030;-53
2022/05/11 00:09:03;;;;;;;29.67;7.05;;;;;;;;;;5003353;28;20081;-53
2022/05/11 00:11:30;;;;;;;37.72;7.57;;;;;;;;;;5000729;28;20022;-52
2022/05/11 00:13:58;;;;;;;23.52;8.00;;;;;;;;;;4999899;28;20053;-52
2022/05/11 00:16:27;;;;;;;20.80;6.57;;;;;;;;;;4998727;28;20030;-53
2022/05/11 00:18:54;;;;;;;25.00;5.90;;;;;;;;;;5001156;28;20038;-48
2022/05/11 00:21:21;;;;;;;35.95;7.47;;;;;;;;;;5000099;28;20030;-54
2022/05/11 00:23:48;;;;;;;44.05;6.78;;;;;;;;;;4993575;28;20030;-55
2022/05/11 00:26:15;;;;;;;30.35;7.95;;;;;;;;;;4991177;28;20034;-57
2022/05/11 00:28:42;;;;;;;22.00;6.93;;;;;;;;;;5011755;28;20108;-56
2022/05/11 00:31:09;;;;;;;29.27;6.30;;;;;;;;;;5011680;28;20029;-54
2022/05/11 00:33:36;;;;;;;24.20;6.53;;;;;;;;;;4980004;28;20117;-56
2022/05/11 00:36:07;;;;;;;27.63;7.63;;;;;;;;;;4991864;28;20030;-52
2022/05/11 00:38:34;;;;;;;31.50;9.80;;;;;;;;;;5007761;28;20040;-52
2022/05/11 00:41:01;;;;;;;42.15;12.25;;;;;;;;;;5012006;28;20026;-55
2022/05/11 00:43:28;;;;;;;45.67;14.02;;;;;;;;;;5011774;28;20084;-51
2022/05/11 00:46:09;;;;;;;59.67;18.80;;;;;;;;;;5011371;28;20091;-53
2022/05/11 00:51:21;;;;;;;73.75;21.15;;;;;;;;;;5011995;28;20048;-52
2022/05/11 00:53:51;;;;;;;74.07;22.80;;;;;;;;;;5011259;28;20060;-52
2022/05/11 00:56:18;;;;;;;79.32;24.42;;;;;;;;;;5011514;28;20030;-51
2022/05/11 00:58:51;;;;;;;77.35;23.45;;;;;;;;;;5011742;28;20476;-54
2022/05/11 01:01:18;;;;;;;71.30;22.75;;;;;;;;;;4986548;28;20439;-53
2022/05/11 01:03:51;;;;;;;66.75;22.90;;;;;;;;;;5007749;28;20026;-55
2022/05/11 01:06:19;;;;;;;68.40;22.58;;;;;;;;;;5015904;28;20484;-54
2022/05/11 01:08:46;;;;;;;65.35;21.45;;;;;;;;;;5015046;28;20050;-54
2022/05/11 01:11:13;;;;;;;71.80;21.88;;;;;;;;;;5015623;28;20021;-55
2022/05/11 01:13:42;;;;;;;62.83;19.55;;;;;;;;;;5015413;28;20034;-54
2022/05/11 01:16:09;;;;;;;54.97;18.98;;;;;;;;;;5015150;28;20468;-54
2022/05/11 01:18:38;;;;;;;54.40;18.38;;;;;;;;;;5015627;28;20034;-52
2022/05/11 01:21:05;;;;;;;60.08;19.23;;;;;;;;;;5013024;28;20026;-51
2022/05/11 01:23:46;;;;;;;56.45;16.95;;;;;;;;;;5014138;28;20060;-54
2022/05/11 01:26:15;;;;;;;53.55;17.58;;;;;;;;;;5015403;28;20030;-53
2022/05/11 01:28:43;;;;;;;47.92;16.65;;;;;;;;;;5013004;28;20033;-54
2022/05/11 01:31:12;;;;;;;52.20;18.52;;;;;;;;;;4986859;28;20034;-55
2022/05/11 01:33:42;;;;;;;50.13;16.52;;;;;;;;;;5003967;28;20133;-56
2022/05/11 01:36:16;;;;;;;46.33;15.65;;;;;;;;;;5002828;28;20109;-55
2022/05/11 01:38:48;;;;;;;47.22;16.08;;;;;;;;;;5002681;28;20025;-56
2022/05/11 01:41:22;;;;;;;44.97;14.60;;;;;;;;;;4999894;28;20555;-55
2022/05/11 01:43:50;;;;;;;40.08;14.15;;;;;;;;;;5004782;28;20065;-53
2022/05/11 01:46:18;;;;;;;47.97;14.43;;;;;;;;;;5002973;28;20497;-55
2022/05/11 01:48:45;;;;;;;48.55;16.02;;;;;;;;;;5002945;28;20080;-55
2022/05/11 01:51:16;;;;;;;45.28;14.82;;;;;;;;;;5002895;28;20052;-54
2022/05/11 01:53:44;;;;;;;45.50;13.75;;;;;;;;;;5013909;28;20042;-54
2022/05/11 01:56:11;;;;;;;39.80;13.85;;;;;;;;;;5014967;28;20057;-55
2022/05/11 01:58:42;;;;;;;46.15;14.73;;;;;;;;;;5011243;28;20527;-51
2022/05/11 02:01:09;;;;;;;45.45;13.00;;;;;;;;;;5014637;28;20034;-54
2022/05/11 02:03:36;;;;;;;37.30;13.40;;;;;;;;;;5011642;28;20545;-54
2022/05/11 02:08:48;;;;;;;34.28;12.77;;;;;;;;;;5014793;28;20112;-54
2022/05/11 02:11:15;;;;;;;40.15;13.02;;;;;;;;;;5014899;28;20021;-55
2022/05/11 02:13:44;;;;;;;37.25;12.00;;;;;;;;;;5014203;28;20037;-55
2022/05/11 02:16:12;;;;;;;37.17;12.20;;;;;;;;;;5013593;28;20164;-55
2022/05/11 02:18:39;;;;;;;34.88;12.32;;;;;;;;;;5014502;28;20050;-56
2022/05/11 02:21:10;;;;;;;32.35;12.50;;;;;;;;;;5014385;28;20083;-55
2022/05/11 02:23:38;;;;;;;27.85;10.07;;;;;;;;;;5014743;28;20026;-55
2022/05/11 02:26:05;;;;;;;32.72;11.75;;;;;;;;;;5014519;28;20025;-55
2022/05/11 02:28:32;;;;;;;30.45;11.07;;;;;;;;;;5002001;28;20093;-52
2022/05/11 02:31:00;;;;;;;30.13;10.77;;;;;;;;;;4997632;28;20146;-57
2022/05/11 02:33:27;;;;;;;36.20;11.43;;;;;;;;;;5002236;28;20072;-56
2022/05/11 02:35:55;;;;;;;28.95;10.57;;;;;;;;;;5004322;28;20109;-55
2022/05/11 02:38:24;;;;;;;32.67;10.77;;;;;;;;;;4997470;28;20117;-54
2022/05/11 02:40:52;;;;;;;27.63;10.73;;;;;;;;;;4999209;28;20120;-54
2022/05/11 02:43:19;;;;;;;29.58;11.98;;;;;;;;;;5004587;28;20034;-49
2022/05/11 02:45:47;;;;;;;28.17;10.88;;;;;;;;;;4989454;28;20034;-53
2022/05/11 02:48:15;;;;;;;34.20;11.38;;;;;;;;;;4983841;28;20042;-52
2022/05/11 02:51:09;;;;;;;31.63;10.05;;;;;;;;;;4985074;28;20026;-53
2022/05/11 02:53:37;;;;;;;25.48;10.30;;;;;;;;;;4981794;28;20054;-54
2022/05/11 02:56:04;;;;;;;29.42;9.40;;;;;;;;;;4998052;28;20109;-53
2022/05/11 02:58:34;;;;;;;28.90;10.32;;;;;;;;;;5002731;28;20679;-54
2022/05/11 03:01:03;;;;;;;25.13;9.90;;;;;;;;;;4995274;28;20117;-55
2022/05/11 03:03:33;;;;;;;26.30;9.55;;;;;;;;;;4994828;28;20481;-54
2022/05/11 03:06:03;;;;;;;27.83;10.48;;;;;;;;;;4995037;28;20069;-54
2022/05/11 03:08:31;;;;;;;23.15;9.20;;;;;;;;;;4994761;28;20074;-54
2022/05/11 03:10:59;;;;;;;29.95;10.32;;;;;;;;;;4994844;28;20038;-53
2022/05/11 03:13:26;;;;;;;29.35;10.68;;;;;;;;;;4994717;28;20033;-53
2022/05/11 03:15:53;;;;;;;25.75;10.20;;;;;;;;;;4977333;28;20092;-55
2022/05/11 03:18:20;;;;;;;22.95;9.40;;;;;;;;;;4994816;28;20022;-54
2022/05/11 03:20:47;;;;;;;24.52;9.88;;;;;;;;;;4994824;28;20034;-53
2022/05/11 03:23:14;;;;;;;23.60;10.23;;;;;;;;;;4994696;28;20061;-54
2022/05/11 03:25:41;;;;;;;24.33;9.10;;;;;;;;;;4994562;28;20072;-52
2022/05/11 03:28:08;;;;;;;29.33;10.15;;;;;;;;;;4994372;28;20128;-54
2022/05/11 03:30:35;;;;;;;24.60;8.90;;;;;;;;;;4994487;28;20121;-55
2022/05/11 03:35:47;;;;;;;23.27;8.32;;;;;;;;;;4994515;28;20416;-55
2022/05/11 03:38:16;;;;;;;25.17;8.80;;;;;;;;;;4994322;28;20137;-55
2022/05/11 03:40:43;;;;;;;20.70;8.48;;;;;;;;;;4994217;28;20045;-55
2022/05/11 03:43:10;;;;;;;23.50;9.32;;;;;;;;;;4994190;28;20046;-54
2022/05/11 03:45:37;;;;;;;22.67;7.82;;;;;;;;;;4994241;28;20038;-55
2022/05/11 03:48:04;;;;;;;20.38;8.23;;;;;;;;;;4994200;28;20036;-53
2022/05/11 03:50:31;;;;;;;22.33;7.82;;;;;;;;;;4994172;28;20038;-53
2022/05/11 03:52:58;;;;;;;23.10;8.15;;;;;;;;;;4993801;28;20031;-54
2022/05/11 03:55:26;;;;;;;21.30;7.72;;;;;;;;;;4994065;28;20038;-51
2022/05/11 03:57:53;;;;;;;20.60;8.50;;;;;;;;;;4993979;28;20030;-54
2022/05/11 04:00:24;;;;;;;25.42;8.80;;;;;;;;;;4993979;28;20085;-54
2022/05/11 04:02:52;;;;;;;18.88;7.85;;;;;;;;;;4993788;28;20392;-53
2022/05/11 04:05:19;;;;;;;17.67;7.50;;;;;;;;;;4993854;28;20048;-54
2022/05/11 04:07:46;;;;;;;19.92;7.63;;;;;;;;;;4993684;28;20196;-54
2022/05/11 04:10:14;;;;;;;22.05;8.55;;;;;;;;;;4993832;28;20023;-54
2022/05/11 04:12:41;;;;;;;20.95;7.90;;;;;;;;;;4993581;28;20022;-53
2022/05/11 04:15:09;;;;;;;22.27;7.95;;;;;;;;;;4993699;28;20026;-53
2022/05/11 04:17:36;;;;;;;19.23;8.30;;;;;;;;;;4993717;28;20046;-54
2022/05/11 04:20:04;;;;;;;15.77;7.95;;;;;;;;;;4993654;28;20030;-55
2022/05/11 04:22:31;;;;;;;21.42;7.50;;;;;;;;;;4993459;28;20026;-54
2022/05/11 04:24:58;;;;;;;16.40;6.40;;;;;;;;;;4993518;28;20034;-53
2022/05/11 04:27:26;;;;;;;18.10;7.22;;;;;;;;;;4993580;28;20026;-55
2022/05/11 04:29:53;;;;;;;18.70;7.10;;;;;;;;;;4993508;28;20107;-53
2022/05/11 04:32:20;;;;;;;17.55;7.13;;;;;;;;;;4993325;28;20392;-53
2022/05/11 04:34:47;;;;;;;19.63;7.35;;;;;;;;;;4993375;28;20551;-53
2022/05/11 04:37:14;;;;;;;17.48;7.30;;;;;;;;;;4993324;28;20119;-55
2022/05/11 04:39:41;;;;;;;17.70;6.30;;;;;;;;;;4992758;28;20038;-53
2022/05/11 04:42:09;;;;;;;15.00;6.30;;;;;;;;;;4993227;28;20093;-53
2022/05/11 04:44:36;;;;;;;16.42;7.05;;;;;;;;;;4993260;28;20125;-54
2022/05/11 04:47:07;;;;;;;15.70;6.50;;;;;;;;;;4993255;28;20030;-52
2022/05/11 04:49:34;;;;;;;19.13;6.60;;;;;;;;;;4993280;28;20050;-55
2022/05/11 04:52:07;;;;;;;17.00;6.68;;;;;;;;;;4993114;28;20061;-55
2022/05/11 04:54:33;;;;;;;;;;;;;;;;;;4993495;28;20039;-55
2022/05/11 04:57:00;;;;;;;13.88;6.32;;;;;;;;;;4993238;28;19913;-51
2022/05/11 04:59:27;;;;;;;13.48;5.78;;;;;;;;;;4993183;28;20034;-53
2022/05/11 05:01:54;;;;;;;15.48;6.65;;;;;;;;;;4993074;28;20098;-51
2022/05/11 05:04:21;;;;;;;15.15;6.07;;;;;;;;;;4993140;28;20038;-54
2022/05/11 05:06:48;;;;;;;16.50;6.35;;;;;;;;;;4992989;28;20046;-54
2022/05/11 05:09:15;;;;;;;13.60;5.57;;;;;;;;;;4993072;28;20414;-52
2022/05/11 05:11:42;;;;;;;12.80;5.30;;;;;;;;;;4992926;28;20030;-54
2022/05/11 05:14:11;;;;;;;12.70;6.05;;;;;;;;;;4992982;28;20042;-53
2022/05/11 05:16:38;;;;;;;15.55;6.35;;;;;;;;;;4992951;28;20038;-48
2022/05/11 05:19:05;;;;;;;12.07;5.40;;;;;;;;;;4992997;28;20077;-54
2022/05/11 05:21:32;;;;;;;16.40;5.97;;;;;;;;;;4992856;28;20053;-53
2022/05/11 05:24:00;;;;;;;16.08;5.47;;;;;;;;;;4992938;28;20030;-51
2022/05/11 05:26:27;;;;;;;13.70;5.60;;;;;;;;;;4992918;28;20040;-47
2022/05/11 05:31:39;;;;;;;14.98;5.93;;;;;;;;;;4993015;28;20088;-47
2022/05/11 05:34:06;;;;;;;15.18;5.70;;;;;;;;;;4992767;28;20034;-48
2022/05/11 05:36:36;;;;;;;13.23;4.97;;;;;;;;;;4992859;28;20489;-50
2022/05/11 05:39:04;;;;;;;14.55;4.85;;;;;;;;;;4992760;28;20042;-51
2022/05/11 05:41:31;;;;;;;13.02;5.40;;;;;;;;;;4992899;28;20129;-47
2022/05/11 05:43:58;;;;;;;14.55;5.57;;;;;;;;;;4992785;28;20034;-49
2022/05/11 05:46:25;;;;;;;12.35;4.68;;;;;;;;;;4992798;28;20030;-48
2022/05/11 05:48:52;;;;;;;14.10;5.40;;;;;;;;;;4992821;28;20034;-48
2022/05/11 05:51:20;;;;;;;11.50;5.25;;;;;;;;;;4996329;28;20030;-48
2022/05/11 05:53:48;;;;;;;12.30;4.70;;;;;;;;;;4996211;28;20031;-48
2022/05/11 05:56:15;;;;;;;11.77;4.97;;;;;;;;;;4996295;28;20041;-51
2022/05/11 05:58:46;;;;;;;11.43;4.65;;;;;;;;;;4996226;28;20022;-49
2022/05/11 06:01:16;;;;;;;12.30;5.03;;;;;;;;;;4996149;28;20030;-49
2022/05/11 06:03:44;;;;;;;10.90;4.05;;;;;;;;;;4996037;28;20126;-47
2022/05/11 06:06:11;;;;;;;12.50;4.88;;;;;;;;;;4995983;28;20160;-46
2022/05/11 06:08:38;;;;;;;14.93;4.88;;;;;;;;;;4995883;28;20112;-48
2022/05/11 06:11:07;;;;;;;9.57;4.65;;;;;;;;;;4995884;28;20420;-49
2022/05/11 06:13:34;;;;;;;12.52;4.70;;;;;;;;;;4995957;28;20636;-49
2022/05/11 06:16:01;;;;;;;9.27;4.22;;;;;;;;;;4995928;28;20031;-50
2022/05/11 06:18:29;;;;;;;11.38;4.40;;;;;;;;;;4995840;28;20485;-49
2022/05/11 06:20:56;;;;;;;12.70;4.95;;;;;;;;;;4995718;28;20069;-50
2022/05/11 06:23:23;;;;;;;12.55;4.88;;;;;;;;;;4995705;28;20370;-51
2022/05/11 06:25:50;;;;;;;10.00;4.82;;;;;;;;;;4995782;28;20042;-49
2022/05/11 06:28:18;;;;;;;8.25;3.63;;;;;;;;;;4995706;28;20026;-48
2022/05/11 06:31:10;;;;;;;9.75;4.05;;;;;;;;;;5118020;22;20027;31
2022/05/11 06:33:37;;;;;;;13.85;4.88;;;;;;;;;;4991246;28;20053;-47
2022/05/11 06:36:05;;;;;;;9.93;3.90;;;;;;;;;;4995290;28;20037;-46
2022/05/11 06:38:33;;;;;;;8.10;3.45;;;;;;;;;;4995285;28;20484;-47
2022/05/11 06:41:10;;;;;;;12.85;4.65;;;;;;;;;;4995302;28;20031;-48
2022/05/11 06:43:37;;;;;;;12.70;4.40;;;;;;;;;;4995188;28;20121;-47
2022/05/11 06:46:04;;;;;;;12.00;4.75;;;;;;;;;;4995064;28;20054;-48
2022/05/11 06:48:31;;;;;;;10.55;4.00;;;;;;;;;;4994888;28;20040;-47
2022/05/11 06:50:58;;;;;;;12.02;4.13;;;;;;;;;;4994811;28;20095;-49
2022/05/11 06:53:26;;;;;;;14.02;4.63;;;;;;;;;;4994868;28;20034;-46
2022/05/11 07:01:23;;;;;;;7.68;3.47;;;;;;;;;;4994107;28;20065;-46
2022/05/11 07:03:50;;;;;;;9.48;4.07;;;;;;;;;;4994900;28;20039;-45
2022/05/11 07:06:17;;;;;;;10.20;3.97;;;;;;;;;;4994646;28;20026;-47
2022/05/11 07:08:45;;;;;;;8.65;3.88;;;;;;;;;;4994559;28;20026;-45
2022/05/11 07:13:58;;;;;;;10.48;4.15;;;;;;;;;;4994518;28;20053;-45
2022/05/11 07:16:27;;;;;;;11.25;3.83;;;;;;;;;;4994525;28;20071;-47
2022/05/11 07:18:54;;;;;;;10.68;4.30;;;;;;;;;;4994488;28;20065;-45
2022/05/11 07:21:21;;;;;;;11.90;4.18;;;;;;;;;;4994277;28;20080;-47
2022/05/11 07:23:48;;;;;;;8.93;3.60;;;;;;;;;;4994160;28;20054;-45
2022/05/11 07:26:15;;;;;;;8.02;3.22;;;;;;;;;;4994276;28;20029;-46
2022/05/11 07:28:42;;;;;;;9.80;3.70;;;;;;;;;;4994134;28;20033;-47
2022/05/11 07:31:09;;;;;;;9.55;3.58;;;;;;;;;;4992575;28;20026;-47
2022/05/11 07:33:36;;;;;;;8.77;3.45;;;;;;;;;;4994033;28;20038;-46
2022/05/11 07:36:03;;;;;;;9.50;3.88;;;;;;;;;;4994104;28;20031;-47
2022/05/11 07:38:30;;;;;;;9.35;3.33;;;;;;;;;;4994063;28;20033;-44
2022/05/11 07:40:57;;;;;;;8.00;3.05;;;;;;;;;;4993759;28;20488;-47
2022/05/11 07:43:24;;;;;;;10.32;3.67;;;;;;;;;;4993815;28;20034;-48
2022/05/11 07:45:51;;;;;;;8.15;3.33;;;;;;;;;;4993870;28;20038;-46
2022/05/11 07:48:22;;;;;;;7.38;3.58;;;;;;;;;;4992548;28;20030;-45
2022/05/11 07:50:49;;;;;;;6.15;3.25;;;;;;;;;;4993646;28;20034;-45
2022/05/11 07:53:16;;;;;;;8.55;3.65;;;;;;;;;;4993528;28;20077;-44
2022/05/11 07:55:44;;;;;;;9.90;4.07;;;;;;;;;;4993678;28;20476;-44
2022/05/11 08:00:57;;;;;;;8.15;3.00;;;;;;;;;;4993815;28;20081;-45
2022/05/11 08:03:24;;;;;;;11.68;4.10;;;;;;;;;;4993743;28;20040;-46
2022/05/11 08:05:51;;;;;;;10.75;3.90;;;;;;;;;;4993500;28;20455;-45
2022/05/11 08:08:19;;;;;;;7.82;3.08;;;;;;;;;;4993489;28;20504;-47
2022/05/11 08:10:47;;;;;;;9.32;3.33;;;;;;;;;;4993201;28;20030;-46
2022/05/11 08:13:14;;;;;;;7.50;3.53;;;;;;;;;;4992523;28;20038;-48
2022/05/11 08:15:43;;;;;;;10.55;3.67;;;;;;;;;;4993217;28;20503;-45
2022/05/11 08:18:10;;;;;;;8.02;3.45;;;;;;;;;;4993220;28;20042;-44
2022/05/11 08:20:41;;;;;;;6.75;3.33;;;;;;;;;;4993122;28;20053;-45
2022/05/11 08:23:08;;;;;;;8.25;3.47;;;;;;;;;;4993213;28;20034;-45
2022/05/11 08:25:36;;;;;;;7.70;3.17;;;;;;;;;;4993159;28;20027;-46
2022/05/11 08:28:03;;;;;;;5.90;2.92;;;;;;;;;;4993255;28;20030;-44
2022/05/11 08:33:24;;;;;;;6.32;2.83;;;;;;;;;;4993326;28;20065;-44
2022/05/11 08:35:52;;;;;;;10.20;3.65;;;;;;;;;;4993061;28;20506;-45
2022/05/11 08:38:20;;;;;;;8.45;3.10;;;;;;;;;;4993046;28;20030;-45
2022/05/11 08:40:58;;;;;;;8.20;3.10;;;;;;;;;;4992956;28;20034;-46
2022/05/11 08:43:31;;;;;;;7.43;3.55;;;;;;;;;;4993051;28;20096;-45
2022/05/11 08:46:04;;;;;;;10.90;3.33;;;;;;;;;;4993098;28;20053;-45
2022/05/11 08:48:31;;;;;;;9.23;3.15;;;;;;;;;;4993081;28;20041;-44
2022/05/11 08:50:59;;;;;;;8.32;3.13;;;;;;;;;;4992802;28;20022;-44
2022/05/11 08:53:29;;;;;;;8.48;3.35;;;;;;;;;;4992748;28;20392;-44
2022/05/11 08:55:58;;;;;;;8.23;3.05;;;;;;;;;;4992891;28;20105;-45
2022/05/11 08:58:45;;;;;;;6.45;2.58;;;;;;;;;;4992735;28;20030;-46
2022/05/11 09:01:35;;;;;;;8.75;3.00;;;;;;;;;;4992502;28;20502;-45
2022/05/11 09:04:07;;;;;;;9.98;3.10;;;;;;;;;;4992804;28;20042;-47
2022/05/11 09:06:36;;;;;;;10.70;3.40;;;;;;;;;;4992604;28;20030;-45
2022/05/11 09:09:04;;;;;;;9.00;2.90;;;;;;;;;;4992584;28;20034;-44
2022/05/11 09:11:50;;;;;;;8.88;2.83;;;;;;;;;;4992657;28;20113;-44
2022/05/11 09:14:20;;;;;;;6.78;3.50;;;;;;;;;;4992654;28;20045;-45
2022/05/11 09:16:50;;;;;;;7.47;2.92;;;;;;;;;;4992714;28;20035;-44
2022/05/11 09:19:22;;;;;;;8.20;2.70;;;;;;;;;;4992695;28;20480;-44
2022/05/11 09:21:54;;;;;;;8.63;3.35;;;;;;;;;;4992576;28;20116;-44
2022/05/11 09:24:25;;;;;;;;;;;;;;;;;;4993959;28;20157;-46
2022/05/11 09:27:01;;;;;;;8.35;3.13;;;;;;;;;;4996423;28;19905;-45
2022/05/11 09:29:37;;;;;;;7.97;2.88;;;;;;;;;;4995574;28;20042;-51
2022/05/11 09:32:22;;;;;;;7.97;2.92;;;;;;;;;;4994826;28;20058;-50
2022/05/11 09:34:49;;;;;;;6.63;2.85;;;;;;;;;;4996204;28;20113;-51
2022/05/11 09:37:37;;;;;;;7.72;3.20;;;;;;;;;;4996261;28;20523;-51
2022/05/11 09:40:12;;;;;;;7.05;2.88;;;;;;;;;;4996147;28;20026;-47
2022/05/11 09:42:49;;;;;;;11.20;3.10;;;;;;;;;;4996267;28;20026;-50
2022/05/11 09:45:40;;;;;;;8.27;3.05;;;;;;;;;;4996083;28;20109;-48
2022/05/11 09:48:30;;;;;;;7.03;2.63;;;;;;;;;;4996165;28;20022;-50
2022/05/11 09:50:59;;;;;;;6.28;2.75;;;;;;;;;;4995823;28;20034;-50
2022/05/11 09:53:32;;;;;;;7.10;2.85;;;;;;;;;;4995837;28;20404;-50
2022/05/11 09:56:15;;;;;;;6.10;2.30;;;;;;;;;;4995974;28;20026;-49
2022/05/11 09:58:42;;;;;;;7.13;2.60;;;;;;;;;;4995926;28;20510;-45
2022/05/11 10:01:14;;;;;;;6.82;2.50;;;;;;;;;;4995752;28;20101;-47
2022/05/11 10:03:45;;;;;;;6.78;2.58;;;;;;;;;;4995848;28;20548;-48
2022/05/11 10:06:13;;;;;;;5.65;2.53;;;;;;;;;;4996577;28;20099;-45
2022/05/11 10:08:43;;;;;;;7.05;3.00;;;;;;;;;;4996837;28;20137;-48
2022/05/11 10:11:16;;;;;;;6.70;2.67;;;;;;;;;;4996677;28;20042;-47
2022/05/11 10:13:52;;;;;;;8.07;2.83;;;;;;;;;;4995787;28;20038;-47
2022/05/11 10:22:26;;;;;;;9.40;2.63;;;;;;;;;;4996103;28;20045;-47
2022/05/11 10:25:01;;;;;;;7.65;2.72;;;;;;;;;;4995808;28;20026;-50
2022/05/11 10:27:28;;;;;;;9.13;2.88;;;;;;;;;;4995621;28;20030;-47
2022/05/11 10:30:05;;;;;;;8.07;2.35;;;;;;;;;;4995574;28;20113;-46
2022/05/11 10:32:40;;;;;;;6.97;2.88;;;;;;;;;;4995284;28;20046;-48
2022/05/11 10:35:07;;;;;;;6.30;2.75;;;;;;;;;;4995361;28;20050;-47
2022/05/11 10:37:37;;;;;;;7.97;2.90;;;;;;;;;;4994643;28;20030;-50
2022/05/11 10:40:12;;;;;;;6.70;2.70;;;;;;;;;;4995526;28;20030;-51
2022/05/11 10:42:46;;;;;;;8.73;2.70;;;;;;;;;;4995268;28;20026;-48
2022/05/11 10:45:13;;;;;;;5.18;2.47;;;;;;;;;;4995440;28;20031;-47
2022/05/11 10:48:18;;;;;;;5.30;2.70;;;;;;;;;;4995366;28;20026;-47
2022/05/11 10:51:03;;;;;;;6.45;2.72;;;;;;;;;;4916179;29;20081;-47
2022/05/11 10:53:30;;;;;;;9.65;2.60;;;;;;;;;;4916301;29;20095;-46
2022/05/11 10:56:00;;;;;;;7.20;3.20;;;;;;;;;;4964387;28;20069;-45
2022/05/11 10:58:36;;;;;;;6.32;2.50;;;;;;;;;;4994978;28;20454;-48
2022/05/11 11:01:06;;;;;;;9.63;4.00;;;;;;;;;;4995013;28;20028;-49
2022/05/11 11:03:52;;;;;;;11.80;3.42;;;;;;;;;;4995064;28;20515;-45
2022/05/11 11:09:22;;;;;;;7.97;3.20;;;;;;;;;;4994969;28;20117;-48
2022/05/11 11:11:49;;;;;;;7.28;3.50;;;;;;;;;;4994877;28;20089;-47
2022/05/11 11:14:25;;;;;;;5.80;3.65;;;;;;;;;;4994649;28;20492;-47
2022/05/11 11:16:52;;;;;;;7.97;3.08;;;;;;;;;;4994875;28;20038;-50
2022/05/11 11:19:19;;;;;;;9.13;3.58;;;;;;;;;;4994712;28;20027;-47
2022/05/11 11:21:46;;;;;;;11.43;3.05;;;;;;;;;;4994682;28;20026;-52
2022/05/11 11:24:22;;;;;;;8.73;3.60;;;;;;;;;;4994553;28;20038;-49
2022/05/11 11:26:51;;;;;;;7.22;2.72;;;;;;;;;;4994636;28;20105;-50
2022/05/11 11:29:19;;;;;;;7.15;3.03;;;;;;;;;;4994512;28;20050;-52
2022/05/11 11:32:16;;;;;;;9.95;2.75;;;;;;;;;;4994325;28;20093;-52
2022/05/11 11:34:48;;;;;;;11.35;3.28;;;;;;;;;;4978098;28;20053;-51
2022/05/11 11:37:14;;;;;;;;;;;;;;;;;;4994881;28;20050;-49
2022/05/11 11:39:55;;;;;;;9.18;3.58;;;;;;;;;;4994357;28;19913;-53
2022/05/11 11:42:38;;;;;;;12.02;3.92;;;;;;;;;;4994210;28;20026;-52
2022/05/11 11:45:11;;;;;;;15.77;4.68;;;;;;;;;;4994194;28;20388;-49
2022/05/11 11:47:40;;;;;;;20.40;4.28;;;;;;;;;;4994285;28;20038;-48
2022/05/11 11:50:12;;;;;;;15.15;4.07;;;;;;;;;;4994240;28;20027;-51
2022/05/11 11:52:44;;;;;;;17.95;4.80;;;;;;;;;;4994132;28;20034;-50
2022/05/11 11:55:20;;;;;;;10.82;4.50;;;;;;;;;;4993941;28;20046;-51
2022/05/11 11:57:48;;;;;;;15.98;4.20;;;;;;;;;;4994210;28;20089;-53
2022/05/11 12:00:21;;;;;;;15.48;4.55;;;;;;;;;;4993363;28;20057;-50
2022/05/11 12:02:48;;;;;;;17.42;4.40;;;;;;;;;;4993868;28;20032;-50
2022/05/11 12:05:33;;;;;;;15.30;4.68;;;;;;;;;;4993895;28;20109;-50
2022/05/11 12:16:27;;;;;;;11.75;4.30;;;;;;;;;;4994066;28;20119;-52
2022/05/11 12:19:08;;;;;;;13.65;4.07;;;;;;;;;;4993811;28;20411;-52
2022/05/11 12:21:37;;;;;;;14.48;4.97;;;;;;;;;;4993487;28;20030;-52
2022/05/11 12:24:05;;;;;;;12.50;3.85;;;;;;;;;;4993529;28;20549;-51
2022/05/11 12:26:35;;;;;;;13.93;4.80;;;;;;;;;;4993572;28;20038;-50
2022/05/11 12:31:57;;;;;;;11.98;4.05;;;;;;;;;;4993501;28;20089;-51
2022/05/11 12:34:25;;;;;;;15.50;4.57;;;;;;;;;;4993310;28;20042;-45
2022/05/11 12:36:55;;;;;;;12.98;4.10;;;;;;;;;;4993408;28;20435;-49
2022/05/11 12:39:35;;;;;;;13.43;4.50;;;;;;;;;;4992912;28;20026;-48
2022/05/11 12:42:03;;;;;;;11.13;4.45;;;;;;;;;;5009889;28;20029;-52
2022/05/11 12:44:32;;;;;;;18.35;5.55;;;;;;;;;;5012909;28;20041;-49
2022/05/11 12:47:01;;;;;;;13.65;4.15;;;;;;;;;;5012617;28;20036;-49
2022/05/11 12:49:29;;;;;;;9.98;4.03;;;;;;;;;;5007853;28;20025;-52
2022/05/11 12:52:05;;;;;;;16.60;4.18;;;;;;;;;;4999551;28;20112;-46
2022/05/11 12:54:34;;;;;;;36.90;5.13;;;;;;;;;;4998030;28;20365;-44
2022/05/11 12:57:12;;;;;;;23.73;4.22;;;;;;;;;;5006881;28;20059;-45
2022/05/11 12:59:42;;;;;;;16.90;3.78;;;;;;;;;;5011256;28;20040;-49
2022/05/11 13:02:14;;;;;;;15.93;3.40;;;;;;;;;;5010731;28;20516;-52
2022/05/11 13:04:55;;;;;;;12.13;3.10;;;;;;;;;;5010314;28;20469;-52
2022/05/11 13:07:24;;;;;;;11.05;2.72;;;;;;;;;;5011930;28;20490;-51
2022/05/11 13:09:53;;;;;;;14.95;3.33;;;;;;;;;;5011128;28;20490;-46
2022/05/11 13:12:20;;;;;;;11.25;2.88;;;;;;;;;;5011050;28;20038;-51
2022/05/11 13:14:49;;;;;;;12.70;2.88;;;;;;;;;;5011286;28;20080;-53
2022/05/11 13:17:25;;;;;;;13.55;3.40;;;;;;;;;;5009934;28;20034;-50
2022/05/11 13:19:53;;;;;;;11.73;3.50;;;;;;;;;;5011583;28;20120;-48
2022/05/11 13:22:25;;;;;;;12.38;3.10;;;;;;;;;;5004489;28;20392;-51
2022/05/11 13:24:52;;;;;;;13.90;2.87;;;;;;;;;;5011027;28;20641;-49
2022/05/11 13:27:34;;;;;;;29.95;4.40;;;;;;;;;;5010724;28;20793;-45
2022/05/11 13:30:04;;;;;;;19.85;4.25;;;;;;;;;;5011608;28;20026;-48
2022/05/11 13:32:36;;;;;;;16.95;3.70;;;;;;;;;;5011282;28;20053;-48
2022/05/11 13:35:21;;;;;;;18.67;4.57;;;;;;;;;;5011498;28;20447;-52
2022/05/11 13:37:57;;;;;;;16.77;3.92;;;;;;;;;;5010764;28;20383;-47
2022/05/11 13:40:31;;;;;;;20.25;4.13;;;;;;;;;;5010646;28;20034;-51
2022/05/11 13:42:59;;;;;;;15.10;3.53;;;;;;;;;;5009774;28;20390;-50
2022/05/11 13:45:26;;;;;;;16.48;3.13;;;;;;;;;;5010368;28;20412;-47
2022/05/11 13:48:13;;;;;;;18.42;3.72;;;;;;;;;;5009651;28;20092;-51
2022/05/11 13:50:51;;;;;;;17.25;3.97;;;;;;;;;;5009937;28;20772;-49
2022/05/11 13:53:44;;;;;;;23.92;3.88;;;;;;;;;;5010285;28;20108;-52
2022/05/11 13:56:31;;;;;;;16.92;3.60;;;;;;;;;;5008724;28;20069;-54
2022/05/11 13:58:58;;;;;;;17.13;3.80;;;;;;;;;;5007570;28;20495;-53
2022/05/11 14:01:26;;;;;;;13.55;3.20;;;;;;;;;;5010348;28;20022;-50
2022/05/11 14:03:56;;;;;;;20.00;3.40;;;;;;;;;;5009972;28;20046;-50
2022/05/11 14:06:25;;;;;;;12.40;3.17;;;;;;;;;;5010116;28;20491;-48
2022/05/11 14:08:52;;;;;;;14.98;3.30;;;;;;;;;;5009485;28;20507;-52
2022/05/11 14:11:20;;;;;;;13.15;3.45;;;;;;;;;;5010778;28;20065;-54
2022/05/11 14:13:47;;;;;;;9.88;3.85;;;;;;;;;;5012660;28;20030;-52
2022/05/11 14:16:18;;;;;;;13.75;3.60;;;;;;;;;;5013299;28;20033;-49
2022/05/11 14:18:46;;;;;;;20.55;4.55;;;;;;;;;;5013463;28;20044;-52
2022/05/11 14:21:14;;;;;;;29.80;4.50;;;;;;;;;;5012512;28;20056;-50
2022/05/11 14:23:42;;;;;;;22.42;3.78;;;;;;;;;;5013118;28;20129;-54
2022/05/11 14:26:09;;;;;;;18.95;3.92;;;;;;;;;;5013342;28;20117;-52
2022/05/11 14:28:36;;;;;;;26.95;4.30;;;;;;;;;;5012805;28;20044;-49
2022/05/11 14:31:05;;;;;;;20.88;3.80;;;;;;;;;;5012177;28;20032;-48
2022/05/11 14:33:31;;;;;;;20.40;4.28;;;;;;;;;;5012605;28;20049;-47
2022/05/11 14:35:58;;;;;;;35.17;4.78;;;;;;;;;;5013203;28;20034;-50
2022/05/11 14:38:25;;;;;;;25.38;4.22;;;;;;;;;;5013348;28;20399;-51
2022/05/11 14:40:52;;;;;;;21.00;4.57;;;;;;;;;;5012010;28;20038;-53
2022/05/11 14:43:20;;;;;;;28.33;3.85;;;;;;;;;;5012857;28;20065;-53
2022/05/11 14:45:50;;;;;;;32.67;4.80;;;;;;;;;;5012360;28;20588;-54
2022/05/11 14:48:25;;;;;;;43.35;4.82;;;;;;;;;;5013013;28;20057;-53
2022/05/11 14:50:52;;;;;;;15.85;3.80;;;;;;;;;;5011455;28;20095;-51
2022/05/11 14:53:19;;;;;;;16.73;3.42;;;;;;;;;;5012429;28;20733;-53
2022/05/11 14:55:46;;;;;;;22.30;4.18;;;;;;;;;;5012127;28;20065;-51
2022/05/11 15:03:44;;;;;;;35.15;4.13;;;;;;;;;;5013429;28;20122;-53
2022/05/11 15:06:16;;;;;;;30.40;3.97;;;;;;;;;;5012578;28;20058;-49
2022/05/11 15:08:43;;;;;;;23.33;3.60;;;;;;;;;;5012854;28;20033;-54
2022/05/11 15:13:55;;;;;;;20.92;3.80;;;;;;;;;;5010787;28;20056;-48
2022/05/11 15:16:22;;;;;;;17.70;3.53;;;;;;;;;;4994943;28;20080;-51
2022/05/11 15:18:49;;;;;;;30.92;4.38;;;;;;;;;;5012932;28;20046;-51
2022/05/11 15:21:18;;;;;;;23.73;4.75;;;;;;;;;;5011901;28;20391;-49
2022/05/11 15:23:45;;;;;;;27.73;5.28;;;;;;;;;;5012898;28;20042;-51
2022/05/11 15:26:12;;;;;;;24.42;5.22;;;;;;;;;;5013380;28;20030;-53
2022/05/11 15:28:39;;;;;;;22.70;5.03;;;;;;;;;;5012904;28;20023;-48
2022/05/11 15:31:06;;;;;;;27.00;4.85;;;;;;;;;;5009822;28;20026;-52
2022/05/11 15:33:33;;;;;;;24.88;5.32;;;;;;;;;;4994740;28;20037;-52
2022/05/11 15:36:02;;;;;;;35.67;6.18;;;;;;;;;;5013391;28;20710;-52
2022/05/11 15:38:29;;;;;;;37.65;6.03;;;;;;;;;;5012479;28;20038;-52
2022/05/11 15:40:56;;;;;;;40.10;6.18;;;;;;;;;;5012953;28;20041;-53
2022/05/11 15:43:23;;;;;;;38.70;6.82;;;;;;;;;;5011980;28;20030;-53